createdAt,value
2022-11-05T00:00:48.226Z,53.03
2022-11-05T00:01:48.277Z,52.92
2022-11-05T00:02:48.176Z,52.61
2022-11-05T00:03:48.223Z,52.51
2022-11-05T00:04:48.154Z,52.41
2022-11-05T00:05:48.147Z,52.31
2022-11-05T00:06:48.129Z,52.20
2022-11-05T00:07:48.165Z,52.20
2022-11-05T00:08:48.106Z,52.20
2022-11-05T00:09:48.212Z,52.23
2022-11-05T00:10:48.128Z,52.23
2022-11-05T00:11:48.088Z,52.23
2022-11-05T00:12:48.088Z,52.12
2022-11-05T00:13:48.057Z,52.23
2022-11-05T00:14:48.051Z,52.12
2022-11-05T00:15:48.028Z,52.23
2022-11-05T00:16:48.020Z,52.23
2022-11-05T00:17:48.016Z,52.23
2022-11-05T00:18:48.028Z,52.33
2022-11-05T00:19:47.987Z,52.64
2022-11-05T00:20:47.978Z,52.95
2022-11-05T00:21:47.982Z,53.15
2022-11-05T00:22:47.958Z,53.36
2022-11-05T00:23:47.938Z,53.66
2022-11-05T00:24:47.978Z,53.77
2022-11-05T00:25:47.930Z,53.87
2022-11-05T00:26:47.899Z,53.97
2022-11-05T00:27:47.889Z,53.97
2022-11-05T00:28:47.871Z,54.18
2022-11-05T00:29:47.916Z,54.08
2022-11-05T00:30:47.893Z,54.08
2022-11-05T00:31:47.880Z,53.97
2022-11-05T00:32:47.840Z,53.77
2022-11-05T00:33:47.830Z,53.87
2022-11-05T00:34:47.820Z,53.56
2022-11-05T00:35:47.860Z,53.46
2022-11-05T00:36:47.788Z,53.25
2022-11-05T00:37:50.313Z,53.25
2022-11-05T00:38:47.806Z,53.36
2022-11-05T00:39:47.759Z,53.36
2022-11-05T00:40:47.738Z,53.36
2022-11-05T00:41:47.761Z,53.36
2022-11-05T00:42:47.721Z,53.36
2022-11-05T00:43:47.713Z,53.25
2022-11-05T00:44:47.693Z,53.25
2022-11-05T00:45:47.681Z,53.15
2022-11-05T00:46:48.915Z,53.15
2022-11-05T00:47:47.710Z,52.84
2022-11-05T00:48:47.654Z,52.74
2022-11-05T00:49:47.682Z,52.54
2022-11-05T00:50:47.635Z,52.33
2022-11-05T00:51:47.675Z,52.12
2022-11-05T00:52:47.652Z,51.92
2022-11-05T00:53:47.594Z,51.72
2022-11-05T00:54:47.604Z,51.41
2022-11-05T00:55:47.572Z,51.41
2022-11-05T00:56:47.614Z,51.20
2022-11-05T00:57:47.555Z,50.99
2022-11-05T00:58:47.567Z,50.90
2022-11-05T00:59:47.551Z,50.79
2022-11-05T01:00:47.515Z,50.69
2022-11-05T01:01:47.623Z,50.48
2022-11-05T01:02:47.584Z,50.38
2022-11-05T01:03:51.516Z,50.38
2022-11-05T01:04:47.494Z,50.28
2022-11-05T01:05:47.463Z,49.99
2022-11-05T01:06:47.470Z,49.97
2022-11-05T01:07:47.449Z,49.77
2022-11-05T01:08:47.455Z,49.69
2022-11-05T01:09:47.409Z,49.48
2022-11-05T01:10:47.424Z,49.38
2022-11-05T01:11:47.386Z,49.27
2022-11-05T01:12:47.397Z,49.27
2022-11-05T01:13:47.364Z,49.17
2022-11-05T01:14:47.347Z,49.07
2022-11-05T01:15:47.415Z,48.97
2022-11-05T01:16:47.334Z,48.97
2022-11-05T01:17:47.316Z,48.97
2022-11-05T01:18:47.345Z,49.07
2022-11-05T01:19:47.306Z,48.97
2022-11-05T01:20:47.278Z,49.05
2022-11-05T01:21:47.286Z,49.15
2022-11-05T01:22:47.268Z,49.26
2022-11-05T01:23:47.248Z,49.35
2022-11-05T01:24:47.268Z,49.46
2022-11-05T01:25:47.227Z,49.56
2022-11-05T01:26:47.252Z,49.87
2022-11-05T01:27:47.196Z,49.56
2022-11-05T01:28:47.252Z,49.69
2022-11-05T01:29:47.177Z,49.66
2022-11-05T01:30:47.173Z,49.66
2022-11-05T01:31:47.168Z,49.66
2022-11-05T01:32:47.167Z,49.77
2022-11-05T01:33:47.138Z,49.77
2022-11-05T01:34:47.260Z,49.77
2022-11-05T01:35:47.159Z,49.77
2022-11-05T01:36:47.098Z,49.77
2022-11-05T01:37:47.169Z,49.77
2022-11-05T01:38:47.079Z,49.77
2022-11-05T01:39:47.085Z,49.66
2022-11-05T01:40:47.053Z,49.66
2022-11-05T01:41:47.043Z,49.66
2022-11-05T01:42:47.040Z,49.56
2022-11-05T01:43:47.064Z,49.66
2022-11-05T01:44:47.009Z,49.56
2022-11-05T01:45:47.012Z,49.46
2022-11-05T01:46:46.989Z,49.35
2022-11-05T01:47:46.980Z,49.26
2022-11-05T01:48:46.970Z,49.15
2022-11-05T01:49:47.005Z,48.94
2022-11-05T01:50:46.941Z,48.84
2022-11-05T01:51:46.941Z,48.74
2022-11-05T01:52:46.962Z,48.64
2022-11-05T01:53:46.937Z,48.54
2022-11-05T01:54:46.906Z,48.43
2022-11-05T01:55:46.922Z,48.22
2022-11-05T01:56:46.880Z,48.13
2022-11-05T01:57:46.902Z,47.92
2022-11-05T01:58:46.894Z,47.81
2022-11-05T01:59:46.861Z,47.61
2022-11-05T02:00:46.855Z,47.51
2022-11-05T02:01:46.905Z,47.41
2022-11-05T02:02:46.948Z,47.09
2022-11-05T02:03:46.942Z,47.09
2022-11-05T02:04:46.864Z,46.89
2022-11-05T02:05:46.801Z,46.79
2022-11-05T02:06:46.790Z,46.69
2022-11-05T02:07:46.752Z,46.58
2022-11-05T02:08:46.744Z,46.48
2022-11-05T02:09:46.715Z,46.38
2022-11-05T02:10:46.702Z,46.38
2022-11-05T02:11:46.706Z,46.28
2022-11-05T02:12:46.718Z,46.17
2022-11-05T02:13:46.704Z,46.17
2022-11-05T02:14:46.696Z,46.17
2022-11-05T02:15:46.654Z,46.07
2022-11-05T02:16:46.654Z,46.07
2022-11-05T02:17:46.625Z,46.07
2022-11-05T02:18:46.648Z,45.97
2022-11-05T02:19:46.613Z,46.07
2022-11-05T02:20:51.807Z,45.97
2022-11-05T02:21:47.578Z,45.97
2022-11-05T02:22:46.597Z,45.87
2022-11-05T02:23:46.570Z,45.97
2022-11-05T02:24:46.586Z,45.87
2022-11-05T02:25:46.576Z,45.78
2022-11-05T02:26:46.539Z,45.76
2022-11-05T02:27:46.517Z,45.68
2022-11-05T02:28:46.506Z,45.37
2022-11-05T02:29:46.562Z,45.48
2022-11-05T02:30:46.517Z,45.48
2022-11-05T02:31:46.468Z,45.48
2022-11-05T02:32:46.456Z,45.27
2022-11-05T02:33:46.457Z,45.37
2022-11-05T02:34:46.458Z,45.27
2022-11-05T02:35:46.470Z,45.17
2022-11-05T02:36:46.457Z,45.07
2022-11-05T02:37:46.415Z,44.96
2022-11-05T02:38:46.391Z,44.86
2022-11-05T02:39:46.400Z,44.56
2022-11-05T02:40:46.378Z,44.24
2022-11-05T02:41:46.377Z,44.04
2022-11-05T02:42:46.368Z,44.14
2022-11-05T02:43:46.344Z,43.94
2022-11-05T02:44:46.331Z,43.94
2022-11-05T02:45:46.309Z,43.73
2022-11-05T02:46:46.298Z,43.73
2022-11-05T02:47:46.297Z,43.73
2022-11-05T02:48:46.309Z,43.94
2022-11-05T02:49:46.301Z,43.84
2022-11-05T02:50:46.251Z,43.94
2022-11-05T02:51:46.246Z,43.94
2022-11-05T02:52:46.230Z,43.94
2022-11-05T02:53:46.227Z,43.73
2022-11-05T02:54:46.240Z,43.52
2022-11-05T02:55:46.191Z,43.52
2022-11-05T02:56:46.188Z,43.42
2022-11-05T02:57:46.170Z,43.32
2022-11-05T02:58:46.205Z,43.32
2022-11-05T02:59:46.159Z,43.42
2022-11-05T03:00:46.165Z,43.32
2022-11-05T03:01:46.251Z,43.42
2022-11-05T03:02:46.335Z,43.22
2022-11-05T03:03:46.101Z,43.42
2022-11-05T03:04:46.090Z,43.32
2022-11-05T03:05:46.123Z,43.32
2022-11-05T03:06:46.053Z,43.42
2022-11-05T03:07:46.068Z,43.52
2022-11-05T03:08:46.032Z,43.63
2022-11-05T03:09:46.033Z,43.73
2022-11-05T03:10:46.023Z,43.84
2022-11-05T03:11:46.067Z,44.04
2022-11-05T03:12:46.008Z,44.24
2022-11-05T03:13:45.993Z,44.45
2022-11-05T03:14:45.971Z,44.76
2022-11-05T03:15:45.962Z,44.86
2022-11-05T03:16:45.961Z,45.27
2022-11-05T03:17:45.973Z,45.48
2022-11-05T03:18:45.923Z,45.68
2022-11-05T03:19:45.914Z,45.99
2022-11-05T03:20:45.932Z,46.40
2022-11-05T03:21:45.887Z,46.81
2022-11-05T03:22:45.888Z,47.22
2022-11-05T03:23:45.901Z,48.04
2022-11-05T03:24:45.866Z,48.46
2022-11-05T03:25:45.924Z,48.86
2022-11-05T03:26:45.833Z,49.27
2022-11-05T03:27:45.819Z,49.48
2022-11-05T03:28:45.852Z,49.99
2022-11-05T03:29:45.855Z,50.40
2022-11-05T03:30:45.787Z,50.61
2022-11-05T03:31:45.775Z,50.82
2022-11-05T03:32:45.786Z,51.02
2022-11-05T03:33:45.916Z,51.02
2022-11-05T03:34:45.777Z,51.12
2022-11-05T03:35:45.735Z,51.12
2022-11-05T03:36:45.748Z,51.02
2022-11-05T03:37:45.708Z,51.02
2022-11-05T03:38:45.702Z,50.92
2022-11-05T03:39:45.688Z,50.82
2022-11-05T03:40:45.699Z,50.82
2022-11-05T03:41:45.782Z,50.61
2022-11-05T03:42:45.675Z,50.61
2022-11-05T03:43:45.640Z,50.61
2022-11-05T03:44:45.634Z,50.61
2022-11-05T03:45:45.639Z,50.51
2022-11-05T03:46:45.667Z,50.51
2022-11-05T03:47:45.597Z,50.30
2022-11-05T03:48:45.670Z,50.30
2022-11-05T03:49:45.567Z,50.20
2022-11-05T03:50:45.557Z,50.30
2022-11-05T03:51:45.570Z,50.40
2022-11-05T03:52:45.589Z,50.40
2022-11-05T03:53:45.527Z,50.61
2022-11-05T03:54:45.530Z,50.71
2022-11-05T03:55:45.506Z,50.82
2022-11-05T03:56:45.503Z,51.12
2022-11-05T03:57:45.488Z,51.53
2022-11-05T03:58:45.470Z,52.04
2022-11-05T03:59:45.493Z,52.46
2022-11-05T04:00:45.458Z,53.17
2022-11-05T04:01:45.567Z,54.10
2022-11-05T04:02:45.777Z,54.92
2022-11-05T04:03:45.476Z,55.43
2022-11-05T04:04:45.495Z,55.95
2022-11-05T04:05:45.388Z,56.77
2022-11-05T04:06:45.375Z,57.08
2022-11-05T04:07:45.387Z,57.28
2022-11-05T04:08:45.351Z,57.59
2022-11-05T04:09:45.424Z,58.00
2022-11-05T04:10:46.261Z,59.03
2022-11-05T04:11:45.390Z,59.54
2022-11-05T04:12:45.360Z,59.95
2022-11-05T04:13:45.414Z,60.36
2022-11-05T04:14:45.291Z,60.47
2022-11-05T04:15:45.350Z,60.49
2022-11-05T04:16:45.369Z,60.29
2022-11-05T04:17:45.270Z,60.29
2022-11-05T04:18:45.245Z,59.88
2022-11-05T04:19:45.523Z,59.47
2022-11-05T04:20:45.455Z,58.95
2022-11-05T04:21:45.432Z,58.64
2022-11-05T04:22:45.191Z,58.34
2022-11-05T04:23:45.369Z,58.34
2022-11-05T04:24:45.184Z,59.19
2022-11-05T04:25:45.325Z,58.67
2022-11-05T04:26:45.142Z,58.70
2022-11-05T04:27:45.163Z,57.26
2022-11-05T04:28:45.142Z,56.44
2022-11-05T04:29:45.162Z,56.13
2022-11-05T04:30:45.162Z,56.85
2022-11-05T04:31:45.087Z,56.13
2022-11-05T04:32:45.174Z,56.57
2022-11-05T04:33:45.056Z,55.64
2022-11-05T04:34:45.085Z,55.13
2022-11-05T04:35:45.033Z,54.30
2022-11-05T04:36:45.038Z,53.69
2022-11-05T04:37:45.045Z,53.28
2022-11-05T04:38:45.228Z,52.58
2022-11-05T04:39:45.227Z,52.69
2022-11-05T04:40:45.089Z,52.58
2022-11-05T04:41:45.040Z,52.27
2022-11-05T04:42:45.450Z,51.86
2022-11-05T04:43:44.977Z,51.86
2022-11-05T04:44:44.985Z,51.47
2022-11-05T04:45:44.962Z,50.73
2022-11-05T04:46:45.306Z,51.37
2022-11-05T04:47:45.407Z,51.16
2022-11-05T04:48:44.925Z,50.96
2022-11-05T04:49:44.901Z,51.06
2022-11-05T04:50:44.885Z,50.65
2022-11-05T04:51:44.948Z,49.41
2022-11-05T04:52:44.844Z,48.88
2022-11-05T04:53:44.825Z,48.57
2022-11-05T04:54:44.814Z,49.08
2022-11-05T04:55:44.819Z,49.08
2022-11-05T04:56:44.897Z,49.10
2022-11-05T04:57:44.786Z,49.10
2022-11-05T04:58:44.845Z,48.80
2022-11-05T04:59:44.828Z,48.90
2022-11-05T05:00:44.802Z,48.90
2022-11-05T05:01:44.807Z,48.59
2022-11-05T05:02:44.836Z,47.97
2022-11-05T05:03:44.719Z,47.87
2022-11-05T05:04:44.706Z,47.77
2022-11-05T05:05:44.696Z,47.35
2022-11-05T05:06:44.739Z,47.15
2022-11-05T05:07:44.728Z,46.84
2022-11-05T05:08:44.757Z,46.43
2022-11-05T05:09:44.648Z,46.53
2022-11-05T05:10:44.679Z,46.12
2022-11-05T05:11:44.641Z,46.01
2022-11-05T05:12:44.614Z,45.91
2022-11-05T05:13:44.660Z,45.79
2022-11-05T05:14:44.629Z,45.71
2022-11-05T05:15:44.696Z,45.61
2022-11-05T05:16:44.610Z,45.50
2022-11-05T05:17:44.639Z,45.37
2022-11-05T05:18:46.241Z,45.09
2022-11-05T05:19:44.580Z,44.86
2022-11-05T05:20:44.530Z,44.86
2022-11-05T05:21:44.509Z,44.76
2022-11-05T05:22:44.748Z,44.65
2022-11-05T05:23:47.172Z,44.76
2022-11-05T05:24:48.581Z,44.76
2022-11-05T05:25:45.490Z,44.96
2022-11-05T05:26:44.468Z,44.96
2022-11-05T05:27:44.465Z,44.86
2022-11-05T05:28:44.455Z,44.76
2022-11-05T05:29:44.411Z,44.76
2022-11-05T05:30:44.471Z,44.74
2022-11-05T05:31:44.421Z,45.25
2022-11-05T05:32:44.435Z,45.95
2022-11-05T05:33:44.424Z,46.26
2022-11-05T05:34:44.363Z,46.88
2022-11-05T05:35:44.445Z,47.39
2022-11-05T05:36:44.386Z,48.21
2022-11-05T05:37:44.326Z,49.35
2022-11-05T05:38:44.311Z,50.86
2022-11-05T05:39:44.302Z,52.09
2022-11-05T05:40:44.281Z,53.94
2022-11-05T05:41:44.302Z,55.49
2022-11-05T05:42:44.288Z,56.59
2022-11-05T05:43:44.369Z,57.41
2022-11-05T05:44:44.242Z,58.85
2022-11-05T05:45:44.303Z,60.19
2022-11-05T05:46:44.233Z,61.32
2022-11-05T05:47:44.236Z,62.34
2022-11-05T05:48:44.203Z,62.65
2022-11-05T05:49:44.182Z,63.27
2022-11-05T05:50:44.194Z,63.89
2022-11-05T05:51:44.714Z,64.50
2022-11-05T05:52:44.165Z,64.50
2022-11-05T05:53:44.180Z,64.40
2022-11-05T05:54:44.142Z,64.91
2022-11-05T05:55:44.114Z,66.04
2022-11-05T05:56:44.104Z,66.14
2022-11-05T05:57:44.096Z,66.96
2022-11-05T05:58:44.085Z,67.89
2022-11-05T05:59:44.135Z,69.02
2022-11-05T06:00:44.082Z,69.64
2022-11-05T06:01:44.165Z,69.84
2022-11-05T06:02:44.195Z,70.15
2022-11-05T06:03:44.025Z,69.84
2022-11-05T06:04:44.048Z,69.32
2022-11-05T06:05:44.007Z,69.84
2022-11-05T06:06:43.994Z,69.64
2022-11-05T06:07:43.987Z,70.66
2022-11-05T06:08:43.984Z,70.97
2022-11-05T06:09:43.977Z,70.46
2022-11-05T06:10:44.072Z,70.46
2022-11-05T06:11:43.927Z,70.46
2022-11-05T06:12:43.920Z,70.66
2022-11-05T06:13:43.928Z,71.08
2022-11-05T06:14:43.896Z,71.38
2022-11-05T06:15:43.930Z,71.38
2022-11-05T06:16:43.954Z,71.17
2022-11-05T06:17:43.942Z,71.28
2022-11-05T06:18:43.851Z,70.66
2022-11-05T06:19:43.828Z,69.94
2022-11-05T06:20:43.828Z,69.74
2022-11-05T06:21:43.817Z,69.53
2022-11-05T06:22:43.850Z,70.04
2022-11-05T06:23:43.798Z,70.76
2022-11-05T06:24:43.780Z,71.17
2022-11-05T06:25:43.831Z,71.28
2022-11-05T06:26:43.769Z,71.89
2022-11-05T06:27:43.768Z,72.72
2022-11-05T06:28:44.328Z,72.99
2022-11-05T06:29:43.772Z,74.22
2022-11-05T06:30:43.732Z,74.53
2022-11-05T06:31:43.702Z,74.12
2022-11-05T06:32:43.690Z,73.50
2022-11-05T06:33:43.682Z,73.19
2022-11-05T06:34:43.745Z,72.78
2022-11-05T06:35:43.649Z,72.89
2022-11-05T06:36:43.646Z,72.68
2022-11-05T06:37:43.666Z,73.19
2022-11-05T06:38:43.620Z,72.78
2022-11-05T06:39:43.608Z,72.38
2022-11-05T06:40:43.623Z,72.58
2022-11-05T06:42:11.891Z,73.19
2022-11-05T06:42:44.591Z,73.30
2022-11-05T06:43:43.651Z,73.50
2022-11-05T06:44:43.557Z,73.71
2022-11-05T06:45:43.539Z,73.30
2022-11-05T06:46:48.386Z,72.78
2022-11-05T06:47:44.529Z,72.17
2022-11-05T06:48:43.593Z,71.97
2022-11-05T06:49:43.512Z,71.86
2022-11-05T06:50:43.493Z,71.25
2022-11-05T06:51:43.480Z,71.35
2022-11-05T06:52:43.511Z,70.94
2022-11-05T06:53:43.440Z,71.04
2022-11-05T06:54:43.508Z,71.04
2022-11-05T06:55:43.611Z,70.84
2022-11-05T06:56:43.485Z,71.66
2022-11-05T06:57:43.420Z,72.06
2022-11-05T06:58:43.452Z,72.48
2022-11-05T06:59:43.371Z,72.89
2022-11-05T07:00:43.489Z,73.19
2022-11-05T07:01:43.447Z,73.30
2022-11-05T07:02:43.355Z,73.61
2022-11-05T07:03:43.361Z,73.40
2022-11-05T07:04:43.322Z,75.04
2022-11-05T07:05:43.569Z,74.94
2022-11-05T07:06:43.306Z,74.63
2022-11-05T07:07:43.350Z,74.02
2022-11-05T07:08:43.286Z,73.61
2022-11-05T07:09:43.287Z,72.89
2022-11-05T07:10:43.262Z,72.78
2022-11-05T07:11:43.271Z,72.17
2022-11-05T07:12:43.254Z,72.17
2022-11-05T07:13:43.226Z,72.27
2022-11-05T07:14:43.221Z,74.02
2022-11-05T07:15:43.254Z,74.63
2022-11-05T07:16:43.207Z,74.12
2022-11-05T07:17:43.186Z,74.84
2022-11-05T07:18:43.286Z,75.56
2022-11-05T07:19:43.163Z,75.04
2022-11-05T07:20:43.152Z,74.53
2022-11-05T07:21:43.186Z,74.84
2022-11-05T07:22:43.115Z,75.04
2022-11-05T07:23:43.105Z,74.74
2022-11-05T07:24:43.131Z,74.43
2022-11-05T07:25:43.079Z,74.22
2022-11-05T07:26:43.076Z,74.12
2022-11-05T07:27:43.128Z,73.91
2022-11-05T07:28:43.058Z,73.81
2022-11-05T07:29:43.040Z,73.19
2022-11-05T07:30:43.026Z,72.78
2022-11-05T07:31:43.029Z,73.10
2022-11-05T07:32:43.088Z,72.99
2022-11-05T07:33:43.079Z,72.58
2022-11-05T07:34:42.977Z,71.86
2022-11-05T07:35:42.983Z,71.25
2022-11-05T07:36:42.965Z,71.97
2022-11-05T07:37:42.957Z,71.86
2022-11-05T07:38:42.978Z,71.97
2022-11-05T07:39:42.924Z,72.38
2022-11-05T07:40:42.919Z,72.17
2022-11-05T07:41:42.920Z,72.27
2022-11-05T07:42:42.928Z,73.10
2022-11-05T07:43:42.890Z,73.91
2022-11-05T07:44:42.903Z,74.02
2022-11-05T07:45:42.876Z,73.61
2022-11-05T07:46:42.838Z,74.32
2022-11-05T07:47:42.869Z,74.12
2022-11-05T07:48:42.815Z,74.22
2022-11-05T07:49:42.810Z,74.32
2022-11-05T07:50:42.831Z,74.53
2022-11-05T07:51:42.790Z,74.32
2022-11-05T07:52:42.773Z,75.70
2022-11-05T07:53:45.279Z,75.45
2022-11-05T07:54:42.809Z,74.94
2022-11-05T07:55:42.740Z,74.77
2022-11-05T07:56:42.815Z,74.46
2022-11-05T07:57:42.731Z,74.36
2022-11-05T07:58:42.711Z,74.46
2022-11-05T07:59:42.704Z,74.57
2022-11-05T08:00:42.937Z,74.36
2022-11-05T08:01:42.908Z,74.26
2022-11-05T08:02:42.949Z,74.26
2022-11-05T08:03:42.744Z,73.64
2022-11-05T08:04:42.641Z,73.64
2022-11-05T08:05:42.633Z,73.54
2022-11-05T08:06:42.642Z,73.44
2022-11-05T08:07:42.611Z,73.23
2022-11-05T08:08:42.632Z,72.41
2022-11-05T08:09:42.584Z,72.00
2022-11-05T08:10:42.562Z,71.28
2022-11-05T08:11:42.561Z,70.76
2022-11-05T08:12:42.534Z,70.56
2022-11-05T08:13:42.557Z,71.93
2022-11-05T08:14:42.528Z,71.93
2022-11-05T08:15:42.519Z,71.62
2022-11-05T08:16:42.496Z,71.62
2022-11-05T08:17:42.494Z,71.62
2022-11-05T08:18:42.473Z,70.87
2022-11-05T08:19:42.536Z,70.49
2022-11-05T08:20:42.456Z,70.49
2022-11-05T08:21:42.487Z,70.49
2022-11-05T08:22:42.424Z,71.28
2022-11-05T08:23:42.415Z,71.38
2022-11-05T08:24:42.415Z,71.59
2022-11-05T08:25:42.464Z,71.89
2022-11-05T08:26:42.416Z,73.33
2022-11-05T08:27:42.375Z,74.12
2022-11-05T08:28:42.382Z,73.71
2022-11-05T08:29:42.356Z,74.08
2022-11-05T08:30:42.464Z,76.96
2022-11-05T08:31:42.405Z,76.34
2022-11-05T08:32:42.377Z,78.50
2022-11-05T08:33:42.306Z,79.83
2022-11-05T08:34:42.297Z,80.72
2022-11-05T08:35:42.322Z,81.02
2022-11-05T08:36:42.308Z,81.85
2022-11-05T08:37:42.293Z,83.90
2022-11-05T08:38:42.297Z,84.31
2022-11-05T08:39:42.258Z,84.00
2022-11-05T08:40:42.276Z,84.61
2022-11-05T08:41:42.218Z,83.96
2022-11-05T08:42:42.488Z,83.55
2022-11-05T08:43:42.230Z,83.96
2022-11-05T08:44:42.234Z,85.19
2022-11-05T08:45:42.222Z,87.55
2022-11-05T08:46:42.150Z,87.45
2022-11-05T08:47:42.154Z,86.73
2022-11-05T08:48:42.185Z,86.22
2022-11-05T08:49:42.126Z,84.68
2022-11-05T08:50:42.169Z,85.66
2022-11-05T08:51:42.108Z,86.28
2022-11-05T08:52:42.101Z,87.76
2022-11-05T08:53:42.091Z,88.37
2022-11-05T08:54:42.125Z,87.10
2022-11-05T08:55:42.116Z,86.90
2022-11-05T08:56:42.069Z,88.53
2022-11-05T08:57:42.039Z,89.45
2022-11-05T08:58:42.032Z,88.74
2022-11-05T08:59:42.347Z,88.64
2022-11-05T09:00:42.076Z,90.48
2022-11-05T09:01:42.097Z,90.48
2022-11-05T09:02:42.097Z,87.37
2022-11-05T09:03:41.972Z,88.29
2022-11-05T09:04:41.974Z,86.75
2022-11-05T09:05:41.993Z,90.03
2022-11-05T09:06:41.929Z,91.46
2022-11-05T09:07:42.001Z,91.97
2022-11-05T09:08:41.920Z,91.67
2022-11-05T09:09:41.896Z,90.64
2022-11-05T09:10:41.914Z,92.75
2022-11-05T09:12:09.991Z,92.85
2022-11-05T09:12:42.884Z,91.83
2022-11-05T09:13:41.932Z,92.03
2022-11-05T09:14:41.841Z,93.98
2022-11-05T09:15:41.988Z,94.29
2022-11-05T09:16:41.815Z,95.10
2022-11-05T09:17:41.912Z,95.21
2022-11-05T09:18:41.827Z,94.55
2022-11-05T09:19:41.829Z,94.96
2022-11-05T09:20:41.830Z,95.98
2022-11-05T09:21:41.758Z,94.65
2022-11-05T09:22:43.427Z,94.10
2022-11-05T09:23:41.816Z,95.63
2022-11-05T09:24:41.806Z,96.04
2022-11-05T09:25:41.736Z,96.49
2022-11-05T09:26:41.725Z,96.66
2022-11-05T09:27:41.700Z,96.45
2022-11-05T09:28:41.675Z,96.45
2022-11-05T09:29:41.692Z,96.66
2022-11-05T09:30:41.664Z,97.31
2022-11-05T09:31:41.662Z,94.55
2022-11-05T09:32:41.649Z,95.78
2022-11-05T09:33:41.714Z,95.98
2022-11-05T09:34:41.652Z,95.06
2022-11-05T09:35:41.705Z,96.70
2022-11-05T09:36:41.596Z,95.57
2022-11-05T09:37:41.575Z,94.04
2022-11-05T09:38:41.599Z,94.45
2022-11-05T09:39:41.627Z,96.23
2022-11-05T09:40:41.536Z,95.26
2022-11-05T09:41:41.572Z,95.26
2022-11-05T09:42:41.532Z,96.03
2022-11-05T09:43:41.513Z,95.72
2022-11-05T09:44:41.494Z,95.92
2022-11-05T09:45:41.487Z,95.31
2022-11-05T09:46:41.496Z,96.38
2022-11-05T09:47:41.498Z,95.46
2022-11-05T09:48:41.479Z,95.36
2022-11-05T09:49:41.447Z,94.54
2022-11-05T09:50:41.449Z,95.05
2022-11-05T09:51:41.436Z,94.84
2022-11-05T09:52:41.423Z,93.92
2022-11-05T09:53:41.439Z,94.02
2022-11-05T09:54:41.398Z,94.54
2022-11-05T09:55:41.370Z,94.70
2022-11-05T09:56:41.358Z,94.70
2022-11-05T09:57:41.377Z,95.41
2022-11-05T09:58:41.389Z,95.10
2022-11-05T09:59:41.327Z,94.45
2022-11-05T10:00:41.387Z,95.06
2022-11-05T10:01:41.504Z,94.75
2022-11-05T10:02:41.390Z,95.73
2022-11-05T10:03:41.278Z,95.22
2022-11-05T10:04:41.319Z,94.97
2022-11-05T10:05:41.379Z,97.63
2022-11-05T10:06:41.261Z,99.52
2022-11-05T10:07:41.245Z,97.88
2022-11-05T10:08:41.234Z,97.27
2022-11-05T10:09:41.236Z,97.06
2022-11-05T10:10:41.504Z,96.81
2022-11-05T10:11:41.191Z,97.63
2022-11-05T10:12:41.171Z,97.42
2022-11-05T10:13:41.178Z,98.14
2022-11-05T10:14:41.150Z,97.53
2022-11-05T10:15:41.190Z,96.71
2022-11-05T10:16:41.140Z,97.83
2022-11-05T10:17:41.148Z,97.33
2022-11-05T10:18:41.121Z,97.42
2022-11-05T10:19:41.121Z,97.02
2022-11-05T10:20:41.093Z,97.33
2022-11-05T10:22:05.110Z,96.81
2022-11-05T10:22:45.185Z,96.71
2022-11-05T10:23:42.050Z,96.92
2022-11-05T10:24:41.035Z,97.12
2022-11-05T10:25:41.057Z,97.42
2022-11-05T10:26:41.060Z,97.12
2022-11-05T10:27:41.035Z,96.20
2022-11-05T10:28:41.014Z,95.89
2022-11-05T10:29:40.975Z,95.75
2022-11-05T10:30:40.973Z,97.58
2022-11-05T10:31:40.964Z,97.99
2022-11-05T10:32:41.021Z,98.30
2022-11-05T10:33:40.994Z,98.20
2022-11-05T10:34:40.947Z,97.85
2022-11-05T10:35:40.916Z,97.95
2022-11-05T10:36:40.907Z,98.86
2022-11-05T10:37:41.245Z,98.66
2022-11-05T10:38:40.894Z,98.41
2022-11-05T10:39:40.893Z,98.72
2022-11-05T10:40:40.874Z,99.33
2022-11-05T10:41:40.843Z,98.06
2022-11-05T10:42:40.868Z,98.82
2022-11-05T10:43:40.827Z,98.72
2022-11-05T10:44:40.924Z,99.02
2022-11-05T10:45:40.827Z,98.77
2022-11-05T10:46:40.796Z,98.20
2022-11-05T10:47:40.778Z,97.99
2022-11-05T10:48:43.648Z,98.20
2022-11-05T10:49:40.770Z,97.89
2022-11-05T10:50:40.729Z,98.05
2022-11-05T10:51:40.767Z,98.25
2022-11-05T10:52:40.731Z,98.05
2022-11-05T10:53:40.719Z,98.25
2022-11-05T10:54:40.688Z,98.05
2022-11-05T10:55:40.715Z,98.66
2022-11-05T10:56:40.679Z,98.56
2022-11-05T10:57:40.678Z,98.46
2022-11-05T10:58:40.679Z,98.36
2022-11-05T10:59:40.652Z,98.86
2022-11-05T11:00:40.780Z,99.27
2022-11-05T11:01:40.785Z,98.61
2022-11-05T11:02:40.667Z,98.52
2022-11-05T11:03:40.602Z,99.43
2022-11-05T11:04:40.593Z,98.93
2022-11-05T11:05:40.575Z,99.02
2022-11-05T11:06:40.648Z,99.23
2022-11-05T11:07:40.851Z,99.38
2022-11-05T11:08:40.534Z,99.68
2022-11-05T11:09:40.539Z,99.68
2022-11-05T11:10:40.559Z,99.48
2022-11-05T11:11:40.513Z,99.33
2022-11-05T11:12:41.229Z,99.08
2022-11-05T11:13:40.503Z,99.79
2022-11-05T11:14:40.532Z,99.39
2022-11-05T11:15:40.473Z,99.39
2022-11-05T11:16:40.447Z,99.24
2022-11-05T11:17:40.624Z,99.44
2022-11-05T11:18:40.623Z,99.29
2022-11-05T11:19:40.427Z,99.49
2022-11-05T11:20:40.403Z,98.98
2022-11-05T11:21:40.393Z,99.59
2022-11-05T11:22:40.383Z,99.49
2022-11-05T11:23:40.421Z,99.29
2022-11-05T11:24:40.388Z,98.83
2022-11-05T11:25:40.364Z,99.95
2022-11-05T11:26:40.339Z,98.83
2022-11-05T11:27:40.339Z,99.91
2022-11-05T11:28:40.377Z,99.04
2022-11-05T11:29:42.901Z,99.49
2022-11-05T11:30:41.296Z,99.39
2022-11-05T11:31:40.374Z,99.99
2022-11-05T11:32:40.278Z,99.39
2022-11-05T11:33:40.271Z,99.49
2022-11-05T11:34:40.289Z,99.29
2022-11-05T11:35:40.245Z,99.39
2022-11-05T11:36:40.254Z,98.98
2022-11-05T11:37:40.277Z,99.49
2022-11-05T11:38:40.207Z,99.14
2022-11-05T11:39:40.231Z,99.59
2022-11-05T11:40:40.186Z,99.43
2022-11-05T11:41:40.248Z,99.33
2022-11-05T11:42:40.171Z,99.54
2022-11-05T11:43:40.197Z,99.33
2022-11-05T11:44:40.185Z,98.27
2022-11-05T11:45:40.200Z,99.29
2022-11-05T11:46:40.126Z,99.99
2022-11-05T11:47:40.119Z,99.29
2022-11-05T11:48:40.124Z,98.47
2022-11-05T11:49:40.134Z,99.99
2022-11-05T11:50:40.141Z,99.44
2022-11-05T11:51:40.182Z,98.93
2022-11-05T11:52:40.069Z,99.99
2022-11-05T11:53:40.102Z,98.77
2022-11-05T11:54:40.069Z,99.18
2022-11-05T11:55:40.042Z,99.08
2022-11-05T11:56:40.034Z,99.18
2022-11-05T11:57:40.088Z,99.69
2022-11-05T11:58:40.040Z,99.29
2022-11-05T12:00:07.194Z,99.65
2022-11-05T12:00:41.004Z,99.14
2022-11-05T12:01:40.085Z,99.54
2022-11-05T12:02:39.970Z,99.75
2022-11-05T12:03:39.985Z,99.09
2022-11-05T12:04:39.988Z,99.19
2022-11-05T12:05:39.952Z,99.40
2022-11-05T12:06:39.940Z,99.40
2022-11-05T12:07:39.937Z,98.58
2022-11-05T12:08:45.021Z,98.79
2022-11-05T12:09:40.884Z,98.99
2022-11-05T12:10:39.876Z,99.44
2022-11-05T12:11:39.964Z,99.65
2022-11-05T12:12:40.917Z,99.14
2022-11-05T12:13:39.906Z,98.32
2022-11-05T12:14:45.208Z,98.63
2022-11-05T12:15:40.813Z,98.83
2022-11-05T12:16:39.879Z,98.73
2022-11-05T12:17:39.801Z,99.18
2022-11-05T12:18:39.783Z,99.18
2022-11-05T12:19:39.762Z,99.59
2022-11-05T12:20:39.787Z,99.39
2022-11-05T12:21:52.478Z,99.39
2022-11-05T12:22:40.735Z,99.39
2022-11-05T12:23:39.736Z,99.39
2022-11-05T12:24:39.730Z,99.49
2022-11-05T12:25:39.751Z,99.49
2022-11-05T12:26:39.761Z,99.49
2022-11-05T12:27:39.678Z,99.39
2022-11-05T12:29:04.499Z,99.39
2022-11-05T12:29:40.684Z,99.39
2022-11-05T12:30:39.666Z,99.39
2022-11-05T12:31:39.693Z,99.04
2022-11-05T12:32:39.691Z,99.14
2022-11-05T12:33:39.617Z,99.75
2022-11-05T12:34:39.638Z,99.24
2022-11-05T12:35:44.135Z,99.19
2022-11-05T12:36:41.797Z,98.99
2022-11-05T12:37:39.590Z,97.87
2022-11-05T12:38:39.568Z,97.82
2022-11-05T12:39:39.570Z,99.10
2022-11-05T12:40:39.554Z,97.47
2022-11-05T12:41:39.509Z,97.06
2022-11-05T12:42:39.568Z,95.08
2022-11-05T12:43:39.660Z,96.61
2022-11-05T12:44:39.480Z,94.17
2022-11-05T12:45:39.469Z,95.59
2022-11-05T12:46:39.479Z,94.21
2022-11-05T12:47:39.460Z,94.31
2022-11-05T12:48:39.446Z,95.48
2022-11-05T12:49:39.459Z,95.37
2022-11-05T12:50:39.400Z,96.14
2022-11-05T12:51:39.413Z,97.05
2022-11-05T12:52:39.400Z,97.16